Severo-Kuril'Sk, Russia
Current Conditions -  °F | °C
As of 5:30 PM on Saturday 25 Oct 2014 (Local Time) from UHPP Reporting Station
Haze Haze  
Wind Chill: 38°   Ceiling: 10000
Heat Index: 41°   Visibility: 3mi
Dew Point: 28°   Wind: 4mph
Humidity: 61%   Direction: 140°SE
Pressure: 29.8"   Gusts: NA
Location:  50.68°N, 156.13°E
Report Text: UHPP 250630Z 14002MPS 5000 BR SCT040 BKN100 05/M02 Q1009 NOSIGRMK MT OBSC QFE753/1005 SC070
Loading
Personal Weather Stations






























Interactive Weather Map
Tropical Storm Tracking
New forecast layout! Learn more

10-Day Weather Forecast

Advertisements
Track Severe Weather on mobile